sensor_id;sensor_type;location;lat;lon;timestamp;pressure;altitude;pressure_sealevel;temperature;humidity
15263;BME280;7733;51.554;13.590;2023-05-09T00:01:55;101284.47;;;12.71;53.96
15263;BME280;7733;51.554;13.590;2023-05-09T00:04:23;101287.28;;;12.49;54.75
15263;BME280;7733;51.554;13.590;2023-05-09T00:06:50;101289.03;;;12.51;54.78
15263;BME280;7733;51.554;13.590;2023-05-09T00:09:16;101285.41;;;12.61;53.91
15263;BME280;7733;51.554;13.590;2023-05-09T00:11:42;101283.69;;;12.63;53.99
15263;BME280;7733;51.554;13.590;2023-05-09T00:14:09;101280.94;;;12.75;53.66
15263;BME280;7733;51.554;13.590;2023-05-09T00:16:37;101273.13;;;12.66;53.92
15263;BME280;7733;51.554;13.590;2023-05-09T00:19:03;101276.72;;;12.53;54.57
15263;BME280;7733;51.554;13.590;2023-05-09T00:21:29;101280.28;;;12.48;54.49
15263;BME280;7733;51.554;13.590;2023-05-09T00:23:55;101274.13;;;12.49;54.30
15263;BME280;7733;51.554;13.590;2023-05-09T00:26:22;101276.63;;;12.65;53.89
15263;BME280;7733;51.554;13.590;2023-05-09T00:28:48;101267.88;;;12.60;53.85
15263;BME280;7733;51.554;13.590;2023-05-09T00:31:13;101277.63;;;12.48;54.43
15263;BME280;7733;51.554;13.590;2023-05-09T00:33:39;101271.53;;;12.43;54.36
15263;BME280;7733;51.554;13.590;2023-05-09T00:36:05;101267.09;;;12.52;53.87
15263;BME280;7733;51.554;13.590;2023-05-09T00:38:31;101268.84;;;12.53;54.40
15263;BME280;7733;51.554;13.590;2023-05-09T00:40:57;101256.53;;;12.55;54.62
15263;BME280;7733;51.554;13.590;2023-05-09T00:43:23;101264.50;;;12.45;54.12
15263;BME280;7733;51.554;13.590;2023-05-09T00:45:49;101257.69;;;12.17;55.04
15263;BME280;7733;51.554;13.590;2023-05-09T00:48:15;101262.91;;;12.26;55.14
15263;BME280;7733;51.554;13.590;2023-05-09T00:50:41;101259.44;;;12.15;55.24
15263;BME280;7733;51.554;13.590;2023-05-09T00:53:08;101266.69;;;11.67;56.53
15263;BME280;7733;51.554;13.590;2023-05-09T00:55:35;101257.75;;;12.09;55.17
15263;BME280;7733;51.554;13.590;2023-05-09T00:58:02;101261.22;;;12.13;55.50
15263;BME280;7733;51.554;13.590;2023-05-09T01:00:28;101267.41;;;12.01;56.05
15263;BME280;7733;51.554;13.590;2023-05-09T01:02:55;101257.75;;;12.08;55.63
15263;BME280;7733;51.554;13.590;2023-05-09T01:05:31;101254.41;;;11.78;56.62
15263;BME280;7733;51.554;13.590;2023-05-09T01:08:12;101244.69;;;11.91;56.29
15263;BME280;7733;51.554;13.590;2023-05-09T01:11:02;101247.47;;;11.56;57.39
15263;BME280;7733;51.554;13.590;2023-05-09T01:16:18;101250.09;;;11.56;57.86
15263;BME280;7733;51.554;13.590;2023-05-09T01:19:04;101243.03;;;11.67;57.12
15263;BME280;7733;51.554;13.590;2023-05-09T01:21:34;101243.78;;;11.97;55.95
15263;BME280;7733;51.554;13.590;2023-05-09T01:29:44;101238.69;;;11.57;57.13
15263;BME280;7733;51.554;13.590;2023-05-09T01:32:26;101238.75;;;11.48;57.48
15263;BME280;7733;51.554;13.590;2023-05-09T01:34:55;101228.28;;;11.31;58.17
15263;BME280;7733;51.554;13.590;2023-05-09T01:37:33;101229.19;;;11.30;58.13
15263;BME280;7733;51.554;13.590;2023-05-09T01:40:07;101228.25;;;11.45;57.69
15263;BME280;7733;51.554;13.590;2023-05-09T01:42:51;101217.81;;;11.30;57.96
15263;BME280;7733;51.554;13.590;2023-05-09T01:45:24;101222.19;;;11.18;58.40
15263;BME280;7733;51.554;13.590;2023-05-09T01:47:53;101224.00;;;11.04;58.64
15263;BME280;7733;51.554;13.590;2023-05-09T01:50:21;101229.28;;;10.92;58.98
15263;BME280;7733;51.554;13.590;2023-05-09T01:52:52;101227.47;;;11.24;57.87
15263;BME280;7733;51.554;13.590;2023-05-09T01:55:21;101224.84;;;11.11;58.15
15263;BME280;7733;51.554;13.590;2023-05-09T01:57:52;101219.59;;;11.15;58.12
15263;BME280;7733;51.554;13.590;2023-05-09T02:00:19;101222.22;;;11.11;57.98
15263;BME280;7733;51.554;13.590;2023-05-09T02:02:46;101222.25;;;11.09;58.13
15263;BME280;7733;51.554;13.590;2023-05-09T02:05:13;101225.75;;;11.10;58.29
15263;BME280;7733;51.554;13.590;2023-05-09T02:07:41;101224.94;;;10.51;59.64
15263;BME280;7733;51.554;13.590;2023-05-09T02:10:08;101220.53;;;10.87;58.74
15263;BME280;7733;51.554;13.590;2023-05-09T02:12:34;101217.91;;;10.81;58.81
15263;BME280;7733;51.554;13.590;2023-05-09T02:15:00;101223.97;;;11.12;57.72
15263;BME280;7733;51.554;13.590;2023-05-09T02:17:26;101219.63;;;11.09;58.23
15263;BME280;7733;51.554;13.590;2023-05-09T02:19:54;101225.75;;;11.05;58.03
15263;BME280;7733;51.554;13.590;2023-05-09T02:22:20;101224.94;;;10.83;58.58
15263;BME280;7733;51.554;13.590;2023-05-09T02:24:46;101215.22;;;11.13;57.77
15263;BME280;7733;51.554;13.590;2023-05-09T02:27:13;101216.97;;;11.12;57.74
15263;BME280;7733;51.554;13.590;2023-05-09T02:29:46;101219.63;;;11.03;57.43
15263;BME280;7733;51.554;13.590;2023-05-09T02:32:21;101217.91;;;10.88;58.09
15263;BME280;7733;51.554;13.590;2023-05-09T02:34:50;101215.31;;;10.69;58.85
15263;BME280;7733;51.554;13.590;2023-05-09T02:37:17;101218.78;;;10.80;58.30
15263;BME280;7733;51.554;13.590;2023-05-09T02:39:43;101220.53;;;10.78;58.80
15263;BME280;7733;51.554;13.590;2023-05-09T02:42:11;101222.31;;;10.73;58.47
15263;BME280;7733;51.554;13.590;2023-05-09T02:44:37;101217.88;;;11.08;57.41
15263;BME280;7733;51.554;13.590;2023-05-09T02:47:05;101217.91;;;11.02;57.69
15263;BME280;7733;51.554;13.590;2023-05-09T02:49:32;101210.03;;;10.90;58.00
15263;BME280;7733;51.554;13.590;2023-05-09T02:51:58;101217.94;;;10.75;58.44
15263;BME280;7733;51.554;13.590;2023-05-09T02:54:24;101216.19;;;10.51;59.42
15263;BME280;7733;51.554;13.590;2023-05-09T02:56:50;101209.19;;;10.57;58.99
15263;BME280;7733;51.554;13.590;2023-05-09T02:59:17;101209.19;;;10.76;58.28
15263;BME280;7733;51.554;13.590;2023-05-09T03:01:44;101203.97;;;10.66;58.55
15263;BME280;7733;51.554;13.590;2023-05-09T03:04:10;101200.47;;;10.49;59.45
15263;BME280;7733;51.554;13.590;2023-05-09T03:06:36;101200.44;;;10.71;58.71
15263;BME280;7733;51.554;13.590;2023-05-09T03:09:02;101202.19;;;10.56;59.04
15263;BME280;7733;51.554;13.590;2023-05-09T03:11:28;101200.47;;;10.52;58.77
15263;BME280;7733;51.554;13.590;2023-05-09T03:13:55;101203.94;;;10.73;58.30
15263;BME280;7733;51.554;13.590;2023-05-09T03:16:21;101206.59;;;10.66;58.31
15263;BME280;7733;51.554;13.590;2023-05-09T03:18:47;101203.97;;;10.66;58.28
15263;BME280;7733;51.554;13.590;2023-05-09T03:21:13;101196.97;;;10.23;59.17
15263;BME280;7733;51.554;13.590;2023-05-09T03:23:39;101210.06;;;10.67;58.27
15263;BME280;7733;51.554;13.590;2023-05-09T03:26:04;101202.22;;;10.67;57.67
15263;BME280;7733;51.554;13.590;2023-05-09T03:28:30;101197.84;;;10.48;58.62
15263;BME280;7733;51.554;13.590;2023-05-09T03:30:56;101201.34;;;10.45;58.82
15263;BME280;7733;51.554;13.590;2023-05-09T03:33:22;101208.34;;;10.32;58.64
15263;BME280;7733;51.554;13.590;2023-05-09T03:35:47;101205.72;;;10.37;59.16
15263;BME280;7733;51.554;13.590;2023-05-09T03:38:13;101198.72;;;10.30;59.01
15263;BME280;7733;51.554;13.590;2023-05-09T03:40:39;101202.22;;;10.44;58.51
15263;BME280;7733;51.554;13.590;2023-05-09T03:43:04;101195.19;;;10.06;59.52
15263;BME280;7733;51.554;13.590;2023-05-09T03:45:30;101202.16;;;10.12;60.13
15263;BME280;7733;51.554;13.590;2023-05-09T03:47:56;101203.91;;;10.05;60.53
15263;BME280;7733;51.554;13.590;2023-05-09T03:50:22;101201.28;;;10.15;60.12
15263;BME280;7733;51.554;13.590;2023-05-09T03:52:47;101196.94;;;10.17;60.03
15263;BME280;7733;51.554;13.590;2023-05-09T03:55:15;101197.84;;;10.54;58.29
15263;BME280;7733;51.554;13.590;2023-05-09T03:57:41;101196.00;;;9.80;60.61
15263;BME280;7733;51.554;13.590;2023-05-09T04:00:07;101201.22;;;9.75;60.64
15263;BME280;7733;51.554;13.590;2023-05-09T04:02:34;101200.38;;;9.82;60.47
15263;BME280;7733;51.554;13.590;2023-05-09T04:05:00;101194.28;;;9.95;60.17
15263;BME280;7733;51.554;13.590;2023-05-09T04:07:26;101202.09;;;9.65;60.70
15263;BME280;7733;51.554;13.590;2023-05-09T04:09:54;101208.28;;;10.10;59.65
15263;BME280;7733;51.554;13.590;2023-05-09T04:12:20;101202.19;;;10.40;58.31
15263;BME280;7733;51.554;13.590;2023-05-09T04:14:46;101207.41;;;10.11;59.11
15263;BME280;7733;51.554;13.590;2023-05-09T04:17:12;101208.25;;;10.00;59.94
15263;BME280;7733;51.554;13.590;2023-05-09T04:19:38;101198.72;;;10.24;59.03
15263;BME280;7733;51.554;13.590;2023-05-09T04:22:04;101203.00;;;10.00;59.91
15263;BME280;7733;51.554;13.590;2023-05-09T04:24:29;101203.03;;;10.10;59.41
15263;BME280;7733;51.554;13.590;2023-05-09T04:26:56;101204.78;;;10.07;59.79
15263;BME280;7733;51.554;13.590;2023-05-09T04:29:22;101204.78;;;10.09;59.63
15263;BME280;7733;51.554;13.590;2023-05-09T04:31:47;101205.66;;;10.08;59.74
15263;BME280;7733;51.554;13.590;2023-05-09T04:34:13;101202.16;;;10.18;59.27
15263;BME280;7733;51.554;13.590;2023-05-09T04:36:39;101199.59;;;10.27;59.30
15263;BME280;7733;51.554;13.590;2023-05-09T04:39:05;101206.59;;;10.22;59.25
15263;BME280;7733;51.554;13.590;2023-05-09T04:41:30;101203.03;;;10.10;60.06
15263;BME280;7733;51.554;13.590;2023-05-09T04:43:56;101203.09;;;10.35;59.20
15263;BME280;7733;51.554;13.590;2023-05-09T04:46:22;101208.34;;;10.35;59.48
15263;BME280;7733;51.554;13.590;2023-05-09T04:48:48;101201.31;;;10.41;58.89
15263;BME280;7733;51.554;13.590;2023-05-09T04:51:14;101207.47;;;10.32;59.20
15263;BME280;7733;51.554;13.590;2023-05-09T04:53:40;101203.97;;;10.51;59.03
15263;BME280;7733;51.554;13.590;2023-05-09T04:56:06;101198.69;;;10.68;58.60
15263;BME280;7733;51.554;13.590;2023-05-09T04:58:31;101192.56;;;10.60;58.72
15263;BME280;7733;51.554;13.590;2023-05-09T05:00:58;101203.97;;;10.63;58.46
15263;BME280;7733;51.554;13.590;2023-05-09T05:03:24;101199.56;;;10.75;58.31
15263;BME280;7733;51.554;13.590;2023-05-09T05:05:50;101195.09;;;11.12;57.15
15263;BME280;7733;51.554;13.590;2023-05-09T05:08:15;101191.66;;;11.02;57.59
15263;BME280;7733;51.554;13.590;2023-05-09T05:10:41;101190.69;;;11.18;57.05
15263;BME280;7733;51.554;13.590;2023-05-09T05:13:07;101192.50;;;11.03;56.97
15263;BME280;7733;51.554;13.590;2023-05-09T05:15:33;101189.81;;;11.16;56.90
15263;BME280;7733;51.554;13.590;2023-05-09T05:17:58;101182.84;;;11.12;57.10
15263;BME280;7733;51.554;13.590;2023-05-09T05:20:24;101178.41;;;11.26;56.93
15263;BME280;7733;51.554;13.590;2023-05-09T05:22:50;101178.41;;;11.30;56.78
15263;BME280;7733;51.554;13.590;2023-05-09T05:25:16;101167.13;;;11.03;56.49
15263;BME280;7733;51.554;13.590;2023-05-09T05:27:43;101170.44;;;11.46;55.85
15263;BME280;7733;51.554;13.590;2023-05-09T05:30:09;101171.28;;;11.51;55.49
15263;BME280;7733;51.554;13.590;2023-05-09T05:32:35;101160.84;;;11.42;55.45
15263;BME280;7733;51.554;13.590;2023-05-09T05:35:00;101160.84;;;11.38;55.75
15263;BME280;7733;51.554;13.590;2023-05-09T05:37:28;101159.16;;;11.20;55.91
15263;BME280;7733;51.554;13.590;2023-05-09T05:39:53;101164.22;;;11.59;55.14
15263;BME280;7733;51.554;13.590;2023-05-09T05:42:19;101166.94;;;11.46;54.64
15263;BME280;7733;51.554;13.590;2023-05-09T05:44:45;101165.03;;;11.72;54.63
15263;BME280;7733;51.554;13.590;2023-05-09T05:47:10;101153.59;;;11.78;54.50
15263;BME280;7733;51.554;13.590;2023-05-09T05:49:36;101156.41;;;11.52;53.85
15263;BME280;7733;51.554;13.590;2023-05-09T05:52:02;101150.91;;;11.95;53.14
15263;BME280;7733;51.554;13.590;2023-05-09T05:54:28;101157.94;;;11.93;53.51
15263;BME280;7733;51.554;13.590;2023-05-09T05:56:53;101149.03;;;12.09;52.98
15263;BME280;7733;51.554;13.590;2023-05-09T05:59:19;101149.25;;;11.80;53.82
15263;BME280;7733;51.554;13.590;2023-05-09T06:01:45;101145.66;;;11.92;52.83
15263;BME280;7733;51.554;13.590;2023-05-09T06:04:10;101137.63;;;12.10;52.69
15263;BME280;7733;51.554;13.590;2023-05-09T06:06:36;101130.75;;;11.95;52.20
15263;BME280;7733;51.554;13.590;2023-05-09T06:09:02;101135.06;;;12.01;52.20
15263;BME280;7733;51.554;13.590;2023-05-09T06:11:27;101128.84;;;12.12;51.87
15263;BME280;7733;51.554;13.590;2023-05-09T06:13:53;101127.03;;;12.19;51.64
15263;BME280;7733;51.554;13.590;2023-05-09T06:16:19;101125.75;;;12.60;51.32
15263;BME280;7733;51.554;13.590;2023-05-09T06:18:46;101120.50;;;12.58;50.78
15263;BME280;7733;51.554;13.590;2023-05-09T06:21:12;101120.69;;;12.43;51.02
15263;BME280;7733;51.554;13.590;2023-05-09T06:23:37;101129.56;;;12.31;50.93
15263;BME280;7733;51.554;13.590;2023-05-09T06:26:03;101125.97;;;12.38;51.27
15263;BME280;7733;51.554;13.590;2023-05-09T06:28:29;101115.31;;;12.52;50.86
15263;BME280;7733;51.554;13.590;2023-05-09T06:30:55;101119.69;;;12.55;51.15
15263;BME280;7733;51.554;13.590;2023-05-09T06:33:21;101120.41;;;12.69;51.23
15263;BME280;7733;51.554;13.590;2023-05-09T06:35:47;101115.06;;;12.75;51.02
15263;BME280;7733;51.554;13.590;2023-05-09T06:38:13;101114.03;;;12.90;50.61
15263;BME280;7733;51.554;13.590;2023-05-09T06:40:39;101102.47;;;13.03;50.75
15263;BME280;7733;51.554;13.590;2023-05-09T06:43:04;101098.97;;;13.02;50.32
15263;BME280;7733;51.554;13.590;2023-05-09T06:45:30;101097.91;;;13.14;50.28
15263;BME280;7733;51.554;13.590;2023-05-09T06:47:56;101099.16;;;12.87;50.62
15263;BME280;7733;51.554;13.590;2023-05-09T06:50:22;101098.00;;;13.08;50.53
15263;BME280;7733;51.554;13.590;2023-05-09T06:52:47;101092.63;;;13.19;50.49
15263;BME280;7733;51.554;13.590;2023-05-09T06:55:13;101090.09;;;13.09;50.27
15263;BME280;7733;51.554;13.590;2023-05-09T06:57:39;101087.34;;;13.17;50.32
15263;BME280;7733;51.554;13.590;2023-05-09T07:00:06;101082.66;;;13.39;49.66
15263;BME280;7733;51.554;13.590;2023-05-09T07:02:32;101081.91;;;13.31;49.22
15263;BME280;7733;51.554;13.590;2023-05-09T07:04:57;101075.38;;;13.56;48.98
15263;BME280;7733;51.554;13.590;2023-05-09T07:07:23;101069.78;;;13.78;49.11
15263;BME280;7733;51.554;13.590;2023-05-09T07:09:49;101062.91;;;13.69;49.93
15263;BME280;7733;51.554;13.590;2023-05-09T07:12:15;101070.88;;;13.64;49.42
15263;BME280;7733;51.554;13.590;2023-05-09T07:14:40;101067.25;;;13.72;48.78
15263;BME280;7733;51.554;13.590;2023-05-09T07:17:06;101066.94;;;13.90;48.85
15263;BME280;7733;51.554;13.590;2023-05-09T07:19:33;101055.06;;;14.15;47.95
15263;BME280;7733;51.554;13.590;2023-05-09T07:21:59;101057.66;;;14.18;47.21
15263;BME280;7733;51.554;13.590;2023-05-09T07:24:24;101045.88;;;14.36;47.62
15263;BME280;7733;51.554;13.590;2023-05-09T07:26:50;101051.31;;;14.28;46.77
15263;BME280;7733;51.554;13.590;2023-05-09T07:29:16;101037.09;;;14.36;46.75
15263;BME280;7733;51.554;13.590;2023-05-09T07:31:43;101041.34;;;14.46;46.66
15263;BME280;7733;51.554;13.590;2023-05-09T07:34:09;101032.53;;;14.47;46.95
15263;BME280;7733;51.554;13.590;2023-05-09T07:36:34;101031.72;;;14.42;46.75
15263;BME280;7733;51.554;13.590;2023-05-09T07:39:02;101022.75;;;14.52;46.86
15263;BME280;7733;51.554;13.590;2023-05-09T07:41:30;101023.41;;;14.63;46.15
15263;BME280;7733;51.554;13.590;2023-05-09T07:43:56;101011.28;;;14.95;46.13
15263;BME280;7733;51.554;13.590;2023-05-09T07:46:21;101013.22;;;14.86;46.35
15263;BME280;7733;51.554;13.590;2023-05-09T07:48:47;101016.50;;;14.98;45.27
15263;BME280;7733;51.554;13.590;2023-05-09T07:51:13;101002.97;;;15.11;45.72
15263;BME280;7733;51.554;13.590;2023-05-09T07:53:38;101005.06;;;14.97;45.13
15263;BME280;7733;51.554;13.590;2023-05-09T07:56:04;100993.56;;;15.37;44.40
15263;BME280;7733;51.554;13.590;2023-05-09T07:58:33;100986.88;;;15.58;44.27
15263;BME280;7733;51.554;13.590;2023-05-09T08:00:58;100988.06;;;15.83;44.04
15263;BME280;7733;51.554;13.590;2023-05-09T08:03:24;100982.25;;;16.03;43.92
15263;BME280;7733;51.554;13.590;2023-05-09T08:05:54;100978.91;;;16.27;43.40
15263;BME280;7733;51.554;13.590;2023-05-09T08:08:21;100976.16;;;16.30;42.07
15263;BME280;7733;51.554;13.590;2023-05-09T08:10:47;100974.38;;;16.31;42.64
15263;BME280;7733;51.554;13.590;2023-05-09T08:13:13;100980.41;;;16.68;42.55
15263;BME280;7733;51.554;13.590;2023-05-09T08:15:39;100976.09;;;16.01;41.59
15263;BME280;7733;51.554;13.590;2023-05-09T08:18:04;100970.78;;;16.64;41.60
15263;BME280;7733;51.554;13.590;2023-05-09T08:20:30;100973.50;;;16.61;41.33
15263;BME280;7733;51.554;13.590;2023-05-09T08:22:58;100972.25;;;17.04;41.09
15263;BME280;7733;51.554;13.590;2023-05-09T08:25:24;100966.44;;;16.91;40.49
15263;BME280;7733;51.554;13.590;2023-05-09T08:27:50;100966.03;;;17.05;40.17
15263;BME280;7733;51.554;13.590;2023-05-09T08:30:16;100965.28;;;17.00;40.38
15263;BME280;7733;51.554;13.590;2023-05-09T08:32:42;100954.25;;;17.40;39.54
15263;BME280;7733;51.554;13.590;2023-05-09T08:35:08;100957.66;;;17.17;39.94
15263;BME280;7733;51.554;13.590;2023-05-09T08:37:35;100948.63;;;17.51;39.93
15263;BME280;7733;51.554;13.590;2023-05-09T08:40:03;100938.13;;;17.74;40.25
15263;BME280;7733;51.554;13.590;2023-05-09T08:42:34;100941.56;;;18.01;38.59
15263;BME280;7733;51.554;13.590;2023-05-09T08:45:08;100941.47;;;17.79;38.70
15263;BME280;7733;51.554;13.590;2023-05-09T08:47:37;100935.56;;;17.96;38.63
15263;BME280;7733;51.554;13.590;2023-05-09T08:50:04;100924.03;;;18.22;38.47
15263;BME280;7733;51.554;13.590;2023-05-09T08:52:32;100913.06;;;18.31;39.16
15263;BME280;7733;51.554;13.590;2023-05-09T08:54:59;100918.66;;;18.70;37.43
15263;BME280;7733;51.554;13.590;2023-05-09T08:57:26;100912.47;;;18.46;37.11
15263;BME280;7733;51.554;13.590;2023-05-09T08:59:53;100904.44;;;18.48;37.47
15263;BME280;7733;51.554;13.590;2023-05-09T09:02:20;100905.63;;;18.64;37.14
15263;BME280;7733;51.554;13.590;2023-05-09T09:04:46;100906.50;;;18.87;35.78
15263;BME280;7733;51.554;13.590;2023-05-09T09:07:14;100903.03;;;18.63;35.73
15263;BME280;7733;51.554;13.590;2023-05-09T09:09:46;100895.50;;;18.50;35.36
15263;BME280;7733;51.554;13.590;2023-05-09T09:12:15;100903.78;;;18.88;36.98
15263;BME280;7733;51.554;13.590;2023-05-09T09:14:48;100898.59;;;18.85;35.93
15263;BME280;7733;51.554;13.590;2023-05-09T09:17:19;100900.38;;;19.06;35.53
15263;BME280;7733;51.554;13.590;2023-05-09T09:19:48;100898.56;;;19.29;35.60
15263;BME280;7733;51.554;13.590;2023-05-09T09:22:17;100888.38;;;19.60;34.85
15263;BME280;7733;51.554;13.590;2023-05-09T09:24:43;100900.00;;;19.58;34.53
15263;BME280;7733;51.554;13.590;2023-05-09T09:27:09;100899.00;;;20.01;34.11
15263;BME280;7733;51.554;13.590;2023-05-09T09:29:35;100890.34;;;19.96;34.05
15263;BME280;7733;51.554;13.590;2023-05-09T09:32:04;100894.63;;;19.59;34.46
15263;BME280;7733;51.554;13.590;2023-05-09T09:34:30;100896.41;;;19.59;34.68
15263;BME280;7733;51.554;13.590;2023-05-09T09:36:57;100883.44;;;19.92;33.63
15263;BME280;7733;51.554;13.590;2023-05-09T09:39:23;100892.47;;;20.08;33.06
15263;BME280;7733;51.554;13.590;2023-05-09T09:41:49;100878.25;;;19.89;33.56
15263;BME280;7733;51.554;13.590;2023-05-09T09:44:18;100873.22;;;20.41;33.89
15263;BME280;7733;51.554;13.590;2023-05-09T09:46:53;100872.88;;;20.67;33.84
15263;BME280;7733;51.554;13.590;2023-05-09T09:49:24;100875.88;;;20.41;32.52
15263;BME280;7733;51.554;13.590;2023-05-09T09:51:56;100872.28;;;20.42;32.08
15263;BME280;7733;51.554;13.590;2023-05-09T09:54:24;100877.28;;;20.10;31.69
15263;BME280;7733;51.554;13.590;2023-05-09T09:56:51;100865.81;;;20.66;32.58
15263;BME280;7733;51.554;13.590;2023-05-09T09:59:24;100861.41;;;21.01;32.24
15263;BME280;7733;51.554;13.590;2023-05-09T10:02:04;100860.75;;;21.32;33.31
15263;BME280;7733;51.554;13.590;2023-05-09T10:04:38;100851.53;;;21.20;32.26
15263;BME280;7733;51.554;13.590;2023-05-09T10:07:08;100856.69;;;21.25;32.38
15263;BME280;7733;51.554;13.590;2023-05-09T10:09:36;100848.72;;;21.75;31.82
15263;BME280;7733;51.554;13.590;2023-05-09T10:12:07;100848.34;;;21.66;30.98
15263;BME280;7733;51.554;13.590;2023-05-09T10:14:35;100858.03;;;20.98;31.29
15263;BME280;7733;51.554;13.590;2023-05-09T10:17:03;100842.31;;;21.95;31.03
15263;BME280;7733;51.554;13.590;2023-05-09T10:19:30;100842.16;;;21.48;31.45
15263;BME280;7733;51.554;13.590;2023-05-09T10:22:16;100839.06;;;21.73;30.98
15263;BME280;7733;51.554;13.590;2023-05-09T10:24:59;100833.00;;;21.86;31.14
15263;BME280;7733;51.554;13.590;2023-05-09T10:27:28;100819.53;;;22.21;31.07
15263;BME280;7733;51.554;13.590;2023-05-09T10:30:17;100823.56;;;21.46;31.22
15263;BME280;7733;51.554;13.590;2023-05-09T10:32:57;100822.88;;;21.25;30.57
15263;BME280;7733;51.554;13.590;2023-05-09T10:35:34;100819.72;;;22.34;31.50
15263;BME280;7733;51.554;13.590;2023-05-09T10:38:01;100823.69;;;22.27;30.71
15263;BME280;7733;51.554;13.590;2023-05-09T10:40:27;100817.63;;;22.07;30.90
15263;BME280;7733;51.554;13.590;2023-05-09T10:42:53;100809.72;;;22.06;31.27
15263;BME280;7733;51.554;13.590;2023-05-09T10:45:20;100788.50;;;22.50;31.08
15263;BME280;7733;51.554;13.590;2023-05-09T10:47:51;100801.59;;;22.70;30.94
15263;BME280;7733;51.554;13.590;2023-05-09T10:50:19;100791.63;;;22.27;29.75
15263;BME280;7733;51.554;13.590;2023-05-09T10:55:50;100786.94;;;22.14;29.26
15263;BME280;7733;51.554;13.590;2023-05-09T11:00:50;100771.72;;;21.99;29.62
15263;BME280;7733;51.554;13.590;2023-05-09T11:03:17;100755.75;;;22.15;29.42
15263;BME280;7733;51.554;13.590;2023-05-09T11:05:45;100772.19;;;22.70;29.68
15263;BME280;7733;51.554;13.590;2023-05-09T11:08:30;100762.41;;;21.91;30.10
15263;BME280;7733;51.554;13.590;2023-05-09T11:11:05;100755.53;;;22.65;29.61
15263;BME280;7733;51.554;13.590;2023-05-09T11:13:35;100739.22;;;22.24;27.78
15263;BME280;7733;51.554;13.590;2023-05-09T11:16:08;100747.44;;;22.83;28.06
15263;BME280;7733;51.554;13.590;2023-05-09T11:18:50;100729.56;;;22.83;29.19
15263;BME280;7733;51.554;13.590;2023-05-09T11:21:16;100734.63;;;22.88;28.04
15263;BME280;7733;51.554;13.590;2023-05-09T11:23:44;100727.19;;;22.77;27.80
15263;BME280;7733;51.554;13.590;2023-05-09T11:26:10;100721.34;;;22.70;28.06
15263;BME280;7733;51.554;13.590;2023-05-09T11:28:37;100699.41;;;22.80;29.41
15263;BME280;7733;51.554;13.590;2023-05-09T11:31:15;100701.00;;;22.98;28.92
15263;BME280;7733;51.554;13.590;2023-05-09T11:33:44;100701.31;;;22.77;28.33
15263;BME280;7733;51.554;13.590;2023-05-09T11:36:29;100711.16;;;23.07;27.96
15263;BME280;7733;51.554;13.590;2023-05-09T11:39:07;100687.09;;;23.35;28.19
15263;BME280;7733;51.554;13.590;2023-05-09T11:41:42;100683.84;;;23.30;27.64
15263;BME280;7733;51.554;13.590;2023-05-09T11:44:16;100682.31;;;23.69;28.44
15263;BME280;7733;51.554;13.590;2023-05-09T11:46:43;100679.41;;;23.01;29.01
15263;BME280;7733;51.554;13.590;2023-05-09T11:49:09;100673.69;;;23.21;27.51
15263;BME280;7733;51.554;13.590;2023-05-09T11:51:36;100666.03;;;23.01;28.15
15263;BME280;7733;51.554;13.590;2023-05-09T11:54:06;100661.63;;;23.00;27.71
15263;BME280;7733;51.554;13.590;2023-05-09T11:56:34;100669.88;;;22.81;27.82
15263;BME280;7733;51.554;13.590;2023-05-09T11:59:01;100669.09;;;23.09;27.79
15263;BME280;7733;51.554;13.590;2023-05-09T12:01:28;100669.13;;;23.23;28.44
15263;BME280;7733;51.554;13.590;2023-05-09T12:03:54;100650.59;;;24.17;27.41
15263;BME280;7733;51.554;13.590;2023-05-09T12:06:20;100641.97;;;23.44;27.56
15263;BME280;7733;51.554;13.590;2023-05-09T12:08:46;100640.59;;;23.51;27.49
15263;BME280;7733;51.554;13.590;2023-05-09T12:11:13;100648.06;;;23.17;27.31
15263;BME280;7733;51.554;13.590;2023-05-09T12:14:06;100647.50;;;23.41;26.75
15263;BME280;7733;51.554;13.590;2023-05-09T12:16:32;100638.22;;;23.60;27.42
15263;BME280;7733;51.554;13.590;2023-05-09T12:18:58;100630.84;;;23.35;27.24
15263;BME280;7733;51.554;13.590;2023-05-09T12:21:24;100630.66;;;23.53;27.39
15263;BME280;7733;51.554;13.590;2023-05-09T12:23:54;100625.97;;;23.97;27.20
15263;BME280;7733;51.554;13.590;2023-05-09T12:26:21;100625.81;;;24.40;27.46
15263;BME280;7733;51.554;13.590;2023-05-09T12:28:47;100630.19;;;23.60;27.40
15263;BME280;7733;51.554;13.590;2023-05-09T12:31:15;100619.38;;;24.30;26.47
15263;BME280;7733;51.554;13.590;2023-05-09T12:33:41;100618.19;;;24.07;26.72
15263;BME280;7733;51.554;13.590;2023-05-09T12:36:12;100609.13;;;23.95;26.91
15263;BME280;7733;51.554;13.590;2023-05-09T12:38:38;100610.28;;;23.50;26.21
15263;BME280;7733;51.554;13.590;2023-05-09T12:41:07;100602.13;;;24.20;25.94
15263;BME280;7733;51.554;13.590;2023-05-09T12:43:36;100594.34;;;24.03;26.40
15263;BME280;7733;51.554;13.590;2023-05-09T12:46:03;100597.00;;;23.90;26.31
15263;BME280;7733;51.554;13.590;2023-05-09T12:48:36;100600.13;;;24.23;26.16
15263;BME280;7733;51.554;13.590;2023-05-09T12:51:04;100588.31;;;24.66;26.43
15263;BME280;7733;51.554;13.590;2023-05-09T12:53:30;100588.84;;;24.58;25.61
15263;BME280;7733;51.554;13.590;2023-05-09T12:56:02;100589.31;;;24.25;26.28
15263;BME280;7733;51.554;13.590;2023-05-09T12:58:32;100577.31;;;23.64;26.28
15263;BME280;7733;51.554;13.590;2023-05-09T13:01:03;100568.41;;;23.63;26.84
15263;BME280;7733;51.554;13.590;2023-05-09T13:03:30;100575.03;;;24.24;26.56
15263;BME280;7733;51.554;13.590;2023-05-09T13:06:04;100565.56;;;24.19;26.80
15263;BME280;7733;51.554;13.590;2023-05-09T13:08:35;100559.88;;;24.50;26.90